sensor_id;sensor_type;location;lat;lon;timestamp;pressure;altitude;pressure_sealevel;temperature;humidity
11987;BME280;6053;51.382;6.768;2023-01-26T00:00:08;102192.50;;;5.50;100.00
11987;BME280;6053;51.382;6.768;2023-01-26T00:02:37;102185.34;;;5.57;100.00
11987;BME280;6053;51.382;6.768;2023-01-26T00:05:06;102178.16;;;4.70;100.00
11987;BME280;6053;51.382;6.768;2023-01-26T00:07:34;102166.41;;;5.04;100.00
11987;BME280;6053;51.382;6.768;2023-01-26T00:10:04;102160.03;;;3.52;100.00
11987;BME280;6053;51.382;6.768;2023-01-26T00:12:33;102145.84;;;3.76;100.00
11987;BME280;6053;51.382;6.768;2023-01-26T00:15:02;102144.31;;;3.64;100.00
11987;BME280;6053;51.382;6.768;2023-01-26T00:17:31;102147.00;;;3.46;100.00
11987;BME280;6053;51.382;6.768;2023-01-26T00:19:59;102143.00;;;3.68;100.00
11987;BME280;6053;51.382;6.768;2023-01-26T00:22:28;102148.16;;;4.60;100.00
11987;BME280;6053;51.382;6.768;2023-01-26T00:24:57;102145.88;;;4.56;100.00
11987;BME280;6053;51.382;6.768;2023-01-26T00:27:26;102135.56;;;2.48;100.00
11987;BME280;6053;51.382;6.768;2023-01-26T00:29:55;102130.59;;;2.81;100.00
11987;BME280;6053;51.382;6.768;2023-01-26T00:32:24;102139.56;;;4.55;100.00
11987;BME280;6053;51.382;6.768;2023-01-26T00:34:52;102138.19;;;2.87;100.00
11987;BME280;6053;51.382;6.768;2023-01-26T00:37:21;102128.03;;;2.79;100.00
11987;BME280;6053;51.382;6.768;2023-01-26T00:39:49;102117.81;;;3.74;100.00
11987;BME280;6053;51.382;6.768;2023-01-26T00:42:18;102114.97;;;4.55;100.00
11987;BME280;6053;51.382;6.768;2023-01-26T00:44:49;102111.09;;;4.84;100.00
11987;BME280;6053;51.382;6.768;2023-01-26T00:47:18;102107.38;;;4.41;100.00
11987;BME280;6053;51.382;6.768;2023-01-26T00:49:47;102114.84;;;4.57;100.00
11987;BME280;6053;51.382;6.768;2023-01-26T00:52:16;102109.75;;;5.22;100.00
11987;BME280;6053;51.382;6.768;2023-01-26T00:54:44;102110.47;;;4.98;100.00
11987;BME280;6053;51.382;6.768;2023-01-26T00:57:13;102110.78;;;5.21;100.00
11987;BME280;6053;51.382;6.768;2023-01-26T00:59:41;102099.78;;;5.13;100.00
11987;BME280;6053;51.382;6.768;2023-01-26T01:02:11;102114.34;;;5.13;100.00
11987;BME280;6053;51.382;6.768;2023-01-26T01:04:40;102111.72;;;5.38;100.00
11987;BME280;6053;51.382;6.768;2023-01-26T01:07:09;102112.38;;;4.71;100.00
11987;BME280;6053;51.382;6.768;2023-01-26T01:09:37;102117.66;;;4.99;100.00
11987;BME280;6053;51.382;6.768;2023-01-26T01:12:06;102106.06;;;5.05;100.00
11987;BME280;6053;51.382;6.768;2023-01-26T01:14:35;102111.00;;;5.02;100.00
11987;BME280;6053;51.382;6.768;2023-01-26T01:17:03;102093.41;;;4.70;100.00
11987;BME280;6053;51.382;6.768;2023-01-26T01:19:33;102097.34;;;5.02;100.00
11987;BME280;6053;51.382;6.768;2023-01-26T01:22:02;102105.72;;;4.74;100.00
11987;BME280;6053;51.382;6.768;2023-01-26T01:24:32;102100.13;;;5.10;100.00
11987;BME280;6053;51.382;6.768;2023-01-26T01:27:01;102095.75;;;5.25;100.00
11987;BME280;6053;51.382;6.768;2023-01-26T01:29:30;102083.63;;;5.36;100.00
11987;BME280;6053;51.382;6.768;2023-01-26T01:31:59;102092.34;;;5.31;100.00
11987;BME280;6053;51.382;6.768;2023-01-26T01:34:27;102083.25;;;5.23;100.00
11987;BME280;6053;51.382;6.768;2023-01-26T01:36:57;102083.97;;;4.90;100.00
11987;BME280;6053;51.382;6.768;2023-01-26T01:39:26;102084.06;;;4.81;100.00
11987;BME280;6053;51.382;6.768;2023-01-26T01:41:55;102084.50;;;4.94;100.00
11987;BME280;6053;51.382;6.768;2023-01-26T01:44:24;102083.00;;;5.08;100.00
11987;BME280;6053;51.382;6.768;2023-01-26T01:46:55;102096.44;;;5.27;100.00
11987;BME280;6053;51.382;6.768;2023-01-26T01:49:28;102092.25;;;5.49;100.00
11987;BME280;6053;51.382;6.768;2023-01-26T01:52:03;102105.41;;;5.46;100.00
11987;BME280;6053;51.382;6.768;2023-01-26T01:54:35;102085.72;;;5.42;100.00
11987;BME280;6053;51.382;6.768;2023-01-26T01:57:08;102093.41;;;5.38;100.00
11987;BME280;6053;51.382;6.768;2023-01-26T01:59:44;102088.56;;;5.24;100.00
11987;BME280;6053;51.382;6.768;2023-01-26T02:02:16;102072.50;;;5.29;100.00
11987;BME280;6053;51.382;6.768;2023-01-26T02:08:37;102068.44;;;5.33;100.00
11987;BME280;6053;51.382;6.768;2023-01-26T02:11:09;102073.53;;;5.36;100.00
11987;BME280;6053;51.382;6.768;2023-01-26T02:13:40;102067.13;;;5.54;100.00
11987;BME280;6053;51.382;6.768;2023-01-26T02:16:09;102058.72;;;5.05;100.00
11987;BME280;6053;51.382;6.768;2023-01-26T02:18:38;102062.94;;;4.91;100.00
11987;BME280;6053;51.382;6.768;2023-01-26T02:21:09;102061.47;;;4.70;100.00
11987;BME280;6053;51.382;6.768;2023-01-26T02:23:54;102061.47;;;4.70;100.00
11987;BME280;6053;51.382;6.768;2023-01-26T02:26:27;102062.97;;;4.99;100.00
11987;BME280;6053;51.382;6.768;2023-01-26T02:28:56;102058.16;;;5.27;100.00
11987;BME280;6053;51.382;6.768;2023-01-26T02:31:26;102054.13;;;5.05;100.00
11987;BME280;6053;51.382;6.768;2023-01-26T02:33:55;102048.41;;;5.33;100.00
11987;BME280;6053;51.382;6.768;2023-01-26T02:36:25;102050.66;;;4.69;100.00
11987;BME280;6053;51.382;6.768;2023-01-26T02:41:50;102045.88;;;4.19;100.00
11987;BME280;6053;51.382;6.768;2023-01-26T02:44:38;102045.09;;;4.53;100.00
11987;BME280;6053;51.382;6.768;2023-01-26T02:47:14;102048.69;;;5.13;100.00
11987;BME280;6053;51.382;6.768;2023-01-26T02:49:44;102051.13;;;5.25;100.00
11987;BME280;6053;51.382;6.768;2023-01-26T02:52:18;102052.00;;;5.33;100.00
11987;BME280;6053;51.382;6.768;2023-01-26T02:54:47;102044.53;;;5.43;100.00
11987;BME280;6053;51.382;6.768;2023-01-26T02:57:35;102051.69;;;5.53;100.00
11987;BME280;6053;51.382;6.768;2023-01-26T03:00:05;102049.09;;;5.43;100.00
11987;BME280;6053;51.382;6.768;2023-01-26T03:02:35;102038.47;;;5.32;100.00
11987;BME280;6053;51.382;6.768;2023-01-26T03:05:04;102035.41;;;5.35;100.00
11987;BME280;6053;51.382;6.768;2023-01-26T03:07:33;102028.31;;;5.08;100.00
11987;BME280;6053;51.382;6.768;2023-01-26T03:10:02;102023.06;;;5.23;100.00
11987;BME280;6053;51.382;6.768;2023-01-26T03:12:31;102029.56;;;5.30;100.00
11987;BME280;6053;51.382;6.768;2023-01-26T03:15:01;102029.69;;;5.04;100.00
11987;BME280;6053;51.382;6.768;2023-01-26T03:17:47;102027.69;;;5.22;100.00
11987;BME280;6053;51.382;6.768;2023-01-26T03:20:16;102021.22;;;5.31;100.00
11987;BME280;6053;51.382;6.768;2023-01-26T03:23:02;102022.59;;;5.35;100.00
11987;BME280;6053;51.382;6.768;2023-01-26T03:25:48;102025.00;;;5.38;100.00
11987;BME280;6053;51.382;6.768;2023-01-26T03:28:34;102031.69;;;5.44;100.00
11987;BME280;6053;51.382;6.768;2023-01-26T03:31:05;102034.22;;;5.37;100.00
11987;BME280;6053;51.382;6.768;2023-01-26T03:33:34;102030.84;;;5.43;100.00
11987;BME280;6053;51.382;6.768;2023-01-26T03:36:03;102036.66;;;5.40;100.00
11987;BME280;6053;51.382;6.768;2023-01-26T03:38:32;102041.59;;;5.45;100.00
11987;BME280;6053;51.382;6.768;2023-01-26T03:41:01;102031.31;;;5.39;100.00
11987;BME280;6053;51.382;6.768;2023-01-26T03:43:47;102033.19;;;5.38;100.00
11987;BME280;6053;51.382;6.768;2023-01-26T03:46:34;102036.31;;;5.43;100.00
11987;BME280;6053;51.382;6.768;2023-01-26T03:49:20;102036.97;;;5.37;100.00
11987;BME280;6053;51.382;6.768;2023-01-26T03:52:06;102034.91;;;5.39;100.00
11987;BME280;6053;51.382;6.768;2023-01-26T03:54:52;102030.31;;;5.40;100.00
11987;BME280;6053;51.382;6.768;2023-01-26T03:57:38;102033.53;;;5.27;100.00
11987;BME280;6053;51.382;6.768;2023-01-26T04:00:08;102025.13;;;5.20;100.00
11987;BME280;6053;51.382;6.768;2023-01-26T04:02:39;102014.03;;;5.30;100.00
11987;BME280;6053;51.382;6.768;2023-01-26T04:05:25;102021.72;;;5.27;100.00
11987;BME280;6053;51.382;6.768;2023-01-26T04:08:11;102020.03;;;5.34;100.00
11987;BME280;6053;51.382;6.768;2023-01-26T04:10:49;102019.84;;;5.35;100.00
11987;BME280;6053;51.382;6.768;2023-01-26T04:13:19;102018.94;;;5.10;100.00
11987;BME280;6053;51.382;6.768;2023-01-26T04:16:06;102018.47;;;5.23;100.00
11987;BME280;6053;51.382;6.768;2023-01-26T04:18:54;102011.91;;;5.08;100.00
11987;BME280;6053;51.382;6.768;2023-01-26T04:24:17;101998.88;;;5.02;100.00
11987;BME280;6053;51.382;6.768;2023-01-26T04:26:48;102007.63;;;5.05;100.00
11987;BME280;6053;51.382;6.768;2023-01-26T04:29:17;102008.47;;;5.06;100.00
11987;BME280;6053;51.382;6.768;2023-01-26T04:31:46;102013.94;;;5.06;100.00
11987;BME280;6053;51.382;6.768;2023-01-26T04:34:16;102006.50;;;4.82;100.00
11987;BME280;6053;51.382;6.768;2023-01-26T04:36:44;102007.63;;;5.05;100.00
11987;BME280;6053;51.382;6.768;2023-01-26T04:39:13;102011.91;;;5.08;100.00
11987;BME280;6053;51.382;6.768;2023-01-26T04:41:41;102014.00;;;5.22;100.00
11987;BME280;6053;51.382;6.768;2023-01-26T04:44:10;102007.84;;;5.20;100.00
11987;BME280;6053;51.382;6.768;2023-01-26T04:46:39;102009.22;;;5.24;100.00
11987;BME280;6053;51.382;6.768;2023-01-26T04:49:08;102010.41;;;5.22;100.00
11987;BME280;6053;51.382;6.768;2023-01-26T04:51:38;102010.41;;;5.30;100.00
11987;BME280;6053;51.382;6.768;2023-01-26T04:54:06;102007.88;;;5.28;100.00
11987;BME280;6053;51.382;6.768;2023-01-26T04:56:35;102011.13;;;5.24;100.00
11987;BME280;6053;51.382;6.768;2023-01-26T04:59:06;102012.50;;;5.28;100.00
11987;BME280;6053;51.382;6.768;2023-01-26T05:01:35;102021.03;;;5.25;100.00
11987;BME280;6053;51.382;6.768;2023-01-26T05:04:05;102022.72;;;5.26;100.00
11987;BME280;6053;51.382;6.768;2023-01-26T05:06:33;102017.78;;;5.29;100.00
11987;BME280;6053;51.382;6.768;2023-01-26T05:09:04;102021.03;;;5.33;100.00
11987;BME280;6053;51.382;6.768;2023-01-26T05:11:32;102010.41;;;5.30;100.00
11987;BME280;6053;51.382;6.768;2023-01-26T05:14:01;102007.00;;;5.28;100.00
11987;BME280;6053;51.382;6.768;2023-01-26T05:16:30;102011.63;;;5.27;100.00
11987;BME280;6053;51.382;6.768;2023-01-26T05:18:59;102005.47;;;5.25;100.00
11987;BME280;6053;51.382;6.768;2023-01-26T05:21:27;102001.69;;;5.26;100.00
11987;BME280;6053;51.382;6.768;2023-01-26T05:23:56;102004.78;;;5.31;100.00
11987;BME280;6053;51.382;6.768;2023-01-26T05:26:26;102010.59;;;5.28;100.00
11987;BME280;6053;51.382;6.768;2023-01-26T05:28:54;102010.59;;;5.28;100.00
11987;BME280;6053;51.382;6.768;2023-01-26T05:31:23;102009.25;;;5.32;100.00
11987;BME280;6053;51.382;6.768;2023-01-26T05:33:52;102008.25;;;5.33;100.00
11987;BME280;6053;51.382;6.768;2023-01-26T05:36:20;102016.44;;;5.33;100.00
11987;BME280;6053;51.382;6.768;2023-01-26T05:38:49;102013.72;;;5.33;100.00
11987;BME280;6053;51.382;6.768;2023-01-26T05:41:17;102015.88;;;5.22;100.00
11987;BME280;6053;51.382;6.768;2023-01-26T05:43:47;102017.44;;;5.24;100.00
11987;BME280;6053;51.382;6.768;2023-01-26T05:46:16;102016.59;;;5.24;100.00
11987;BME280;6053;51.382;6.768;2023-01-26T05:48:44;102022.91;;;5.24;100.00
11987;BME280;6053;51.382;6.768;2023-01-26T05:51:13;102020.84;;;5.26;100.00
11987;BME280;6053;51.382;6.768;2023-01-26T05:53:42;102023.56;;;5.26;100.00
11987;BME280;6053;51.382;6.768;2023-01-26T05:56:10;102016.72;;;5.22;100.00
11987;BME280;6053;51.382;6.768;2023-01-26T05:58:39;102021.38;;;5.30;100.00
11987;BME280;6053;51.382;6.768;2023-01-26T06:01:09;102018.47;;;5.31;100.00
11987;BME280;6053;51.382;6.768;2023-01-26T06:03:37;102018.16;;;5.34;100.00
11987;BME280;6053;51.382;6.768;2023-01-26T06:06:06;102019.50;;;5.30;100.00
11987;BME280;6053;51.382;6.768;2023-01-26T06:08:35;102011.78;;;5.26;100.00
11987;BME280;6053;51.382;6.768;2023-01-26T06:11:04;102016.78;;;5.30;100.00
11987;BME280;6053;51.382;6.768;2023-01-26T06:13:32;102013.84;;;5.32;100.00
11987;BME280;6053;51.382;6.768;2023-01-26T06:16:01;102019.19;;;5.33;100.00
11987;BME280;6053;51.382;6.768;2023-01-26T06:18:31;102019.84;;;5.35;100.00
11987;BME280;6053;51.382;6.768;2023-01-26T06:21:00;102027.22;;;5.35;100.00
11987;BME280;6053;51.382;6.768;2023-01-26T06:23:29;102022.09;;;5.40;100.00
11987;BME280;6053;51.382;6.768;2023-01-26T06:25:58;102013.72;;;5.33;100.00
11987;BME280;6053;51.382;6.768;2023-01-26T06:28:29;102016.59;;;5.32;100.00
11987;BME280;6053;51.382;6.768;2023-01-26T06:31:00;102022.91;;;5.32;100.00
11987;BME280;6053;51.382;6.768;2023-01-26T06:33:33;102016.97;;;5.37;100.00
11987;BME280;6053;51.382;6.768;2023-01-26T06:36:02;102021.56;;;5.36;100.00
11987;BME280;6053;51.382;6.768;2023-01-26T06:38:31;102027.22;;;5.35;100.00
11987;BME280;6053;51.382;6.768;2023-01-26T06:41:00;102028.91;;;5.36;100.00
11987;BME280;6053;51.382;6.768;2023-01-26T06:43:29;102027.38;;;5.33;100.00
11987;BME280;6053;51.382;6.768;2023-01-26T06:45:59;102023.63;;;5.34;100.00
11987;BME280;6053;51.382;6.768;2023-01-26T06:48:31;102025.00;;;5.38;100.00
11987;BME280;6053;51.382;6.768;2023-01-26T06:51:17;102030.66;;;5.37;100.00
11987;BME280;6053;51.382;6.768;2023-01-26T06:53:54;102031.50;;;5.37;100.00
11987;BME280;6053;51.382;6.768;2023-01-26T06:56:23;102028.91;;;5.36;100.00
11987;BME280;6053;51.382;6.768;2023-01-26T06:58:54;102034.06;;;5.39;100.00
11987;BME280;6053;51.382;6.768;2023-01-26T07:01:24;102032.34;;;5.38;100.00
11987;BME280;6053;51.382;6.768;2023-01-26T07:03:55;102043.44;;;5.36;100.00
11987;BME280;6053;51.382;6.768;2023-01-26T07:06:23;102029.75;;;5.36;100.00
11987;BME280;6053;51.382;6.768;2023-01-26T07:08:52;102034.22;;;5.37;100.00
11987;BME280;6053;51.382;6.768;2023-01-26T07:11:20;102035.59;;;5.33;100.00
11987;BME280;6053;51.382;6.768;2023-01-26T07:13:51;102034.22;;;5.37;100.00
11987;BME280;6053;51.382;6.768;2023-01-26T07:16:20;102033.19;;;5.38;100.00
11987;BME280;6053;51.382;6.768;2023-01-26T07:18:48;102029.28;;;5.41;100.00
11987;BME280;6053;51.382;6.768;2023-01-26T07:21:18;102032.69;;;5.43;100.00
11987;BME280;6053;51.382;6.768;2023-01-26T07:23:49;102034.44;;;5.44;100.00
11987;BME280;6053;51.382;6.768;2023-01-26T07:26:19;102032.34;;;5.46;100.00
11987;BME280;6053;51.382;6.768;2023-01-26T07:28:48;102027.41;;;5.50;100.00
11987;BME280;6053;51.382;6.768;2023-01-26T07:31:17;102030.66;;;5.45;100.00
11987;BME280;6053;51.382;6.768;2023-01-26T07:33:45;102033.91;;;5.49;100.00
11987;BME280;6053;51.382;6.768;2023-01-26T07:36:14;102033.41;;;5.53;100.00
11987;BME280;6053;51.382;6.768;2023-01-26T07:38:44;102038.34;;;5.50;100.00
11987;BME280;6053;51.382;6.768;2023-01-26T07:41:13;102040.94;;;5.51;100.00
11987;BME280;6053;51.382;6.768;2023-01-26T07:43:41;102041.78;;;5.52;100.00
11987;BME280;6053;51.382;6.768;2023-01-26T07:46:10;102040.09;;;5.51;100.00
11987;BME280;6053;51.382;6.768;2023-01-26T07:48:39;102030.19;;;5.58;100.00
11987;BME280;6053;51.382;6.768;2023-01-26T07:51:08;102033.59;;;5.60;100.00
11987;BME280;6053;51.382;6.768;2023-01-26T07:53:37;102033.09;;;5.64;100.00
11987;BME280;6053;51.382;6.768;2023-01-26T07:56:11;102035.97;;;5.63;100.00
11987;BME280;6053;51.382;6.768;2023-01-26T07:58:40;102034.81;;;5.57;100.00
11987;BME280;6053;51.382;6.768;2023-01-26T08:01:11;102040.28;;;5.57;100.00
11987;BME280;6053;51.382;6.768;2023-01-26T08:03:40;102039.06;;;5.60;100.00
11987;BME280;6053;51.382;6.768;2023-01-26T08:06:12;102034.97;;;5.64;100.00
11987;BME280;6053;51.382;6.768;2023-01-26T08:08:42;102038.56;;;5.64;100.00
11987;BME280;6053;51.382;6.768;2023-01-26T08:11:12;102030.38;;;5.64;100.00
11987;BME280;6053;51.382;6.768;2023-01-26T08:13:41;102036.50;;;5.66;100.00
11987;BME280;6053;51.382;6.768;2023-01-26T08:16:10;102047.31;;;5.68;100.00
11987;BME280;6053;51.382;6.768;2023-01-26T08:18:40;102044.72;;;5.66;100.00
11987;BME280;6053;51.382;6.768;2023-01-26T08:21:09;102048.34;;;5.67;100.00
11987;BME280;6053;51.382;6.768;2023-01-26T08:23:39;102047.13;;;5.61;100.00
11987;BME280;6053;51.382;6.768;2023-01-26T08:26:09;102053.81;;;5.67;100.00
11987;BME280;6053;51.382;6.768;2023-01-26T08:28:40;102050.19;;;5.66;100.00
11987;BME280;6053;51.382;6.768;2023-01-26T08:31:10;102061.31;;;5.65;100.00
11987;BME280;6053;51.382;6.768;2023-01-26T08:33:40;102066.81;;;5.65;100.00
11987;BME280;6053;51.382;6.768;2023-01-26T08:36:11;102062.84;;;5.59;100.00
11987;BME280;6053;51.382;6.768;2023-01-26T08:38:41;102066.09;;;5.63;100.00
11987;BME280;6053;51.382;6.768;2023-01-26T08:41:11;102054.47;;;5.69;100.00
11987;BME280;6053;51.382;6.768;2023-01-26T08:43:41;102056.22;;;5.70;100.00
11987;BME280;6053;51.382;6.768;2023-01-26T08:46:10;102055.00;;;5.73;100.00
11987;BME280;6053;51.382;6.768;2023-01-26T08:48:38;102058.97;;;5.78;100.00
11987;BME280;6053;51.382;6.768;2023-01-26T08:51:07;102058.44;;;5.75;100.00
11987;BME280;6053;51.382;6.768;2023-01-26T08:53:36;102063.22;;;5.73;100.00
11987;BME280;6053;51.382;6.768;2023-01-26T08:56:08;102060.31;;;5.74;100.00
11987;BME280;6053;51.382;6.768;2023-01-26T08:58:37;102064.94;;;5.74;100.00
11987;BME280;6053;51.382;6.768;2023-01-26T09:01:09;102066.31;;;5.78;100.00
11987;BME280;6053;51.382;6.768;2023-01-26T09:03:38;102061.50;;;5.72;100.00
11987;BME280;6053;51.382;6.768;2023-01-26T09:06:08;102059.28;;;5.67;100.00
11987;BME280;6053;51.382;6.768;2023-01-26T09:08:37;102067.66;;;5.65;100.00
11987;BME280;6053;51.382;6.768;2023-01-26T09:11:07;102071.09;;;5.67;100.00
11987;BME280;6053;51.382;6.768;2023-01-26T09:13:36;102068.78;;;5.38;100.00
11987;BME280;6053;51.382;6.768;2023-01-26T09:16:09;102071.25;;;5.58;100.00
11987;BME280;6053;51.382;6.768;2023-01-26T09:18:40;102081.47;;;5.56;100.00
11987;BME280;6053;51.382;6.768;2023-01-26T09:21:09;102087.28;;;5.53;100.00
11987;BME280;6053;51.382;6.768;2023-01-26T09:23:38;102080.28;;;5.50;100.00
11987;BME280;6053;51.382;6.768;2023-01-26T09:26:07;102081.47;;;5.56;100.00
11987;BME280;6053;51.382;6.768;2023-01-26T09:28:36;102079.13;;;5.61;100.00
11987;BME280;6053;51.382;6.768;2023-01-26T09:31:06;102078.88;;;5.46;100.00
11987;BME280;6053;51.382;6.768;2023-01-26T09:33:36;102078.75;;;5.56;100.00
11987;BME280;6053;51.382;6.768;2023-01-26T09:36:06;102088.34;;;5.60;100.00
11987;BME280;6053;51.382;6.768;2023-01-26T09:38:35;102082.50;;;5.55;100.00
11987;BME280;6053;51.382;6.768;2023-01-26T09:41:10;102086.28;;;5.62;100.00
11987;BME280;6053;51.382;6.768;2023-01-26T09:43:48;102083.56;;;5.62;100.00
11987;BME280;6053;51.382;6.768;2023-01-26T09:46:21;102084.44;;;5.71;100.00
11987;BME280;6053;51.382;6.768;2023-01-26T09:49:04;102078.13;;;5.70;100.00
11987;BME280;6053;51.382;6.768;2023-01-26T09:51:35;102076.91;;;5.64;100.00
11987;BME280;6053;51.382;6.768;2023-01-26T09:54:12;102083.94;;;5.67;100.00
11987;BME280;6053;51.382;6.768;2023-01-26T09:56:47;102081.84;;;5.69;100.00
11987;BME280;6053;51.382;6.768;2023-01-26T09:59:23;102081.72;;;5.71;100.00
11987;BME280;6053;51.382;6.768;2023-01-26T10:02:03;102077.75;;;5.73;100.00
11987;BME280;6053;51.382;6.768;2023-01-26T10:04:35;102075.72;;;5.75;100.00
11987;BME280;6053;51.382;6.768;2023-01-26T10:07:09;102083.09;;;5.75;100.00
11987;BME280;6053;51.382;6.768;2023-01-26T10:09:40;102079.50;;;5.74;100.00
11987;BME280;6053;51.382;6.768;2023-01-26T10:12:17;102081.72;;;5.79;100.00
11987;BME280;6053;51.382;6.768;2023-01-26T10:14:50;102076.22;;;5.79;100.00
11987;BME280;6053;51.382;6.768;2023-01-26T10:17:27;102077.78;;;5.81;100.00
11987;BME280;6053;51.382;6.768;2023-01-26T10:20:03;102074.88;;;5.83;100.00
11987;BME280;6053;51.382;6.768;2023-01-26T10:22:39;102071.38;;;5.48;100.00
11987;BME280;6053;51.382;6.768;2023-01-26T10:25:16;102070.91;;;5.61;100.00
11987;BME280;6053;51.382;6.768;2023-01-26T10:27:45;102063.41;;;5.71;100.00
11987;BME280;6053;51.382;6.768;2023-01-26T10:30:16;102060.31;;;5.74;100.00
11987;BME280;6053;51.382;6.768;2023-01-26T10:32:49;102060.81;;;5.70;100.00
11987;BME280;6053;51.382;6.768;2023-01-26T10:35:21;102056.03;;;5.80;100.00
11987;BME280;6053;51.382;6.768;2023-01-26T10:37:50;102052.81;;;5.84;100.00
11987;BME280;6053;51.382;6.768;2023-01-26T10:40:20;102047.34;;;5.93;100.00
11987;BME280;6053;51.382;6.768;2023-01-26T10:42:56;102046.34;;;5.94;100.00
11987;BME280;6053;51.382;6.768;2023-01-26T10:45:29;102040.88;;;5.94;100.00
11987;BME280;6053;51.382;6.768;2023-01-26T10:48:16;102029.34;;;5.90;100.00
11987;BME280;6053;51.382;6.768;2023-01-26T10:50:47;102036.25;;;6.02;100.00
11987;BME280;6053;51.382;6.768;2023-01-26T10:53:18;102035.91;;;5.97;100.00
11987;BME280;6053;51.382;6.768;2023-01-26T10:56:10;102044.13;;;6.05;100.00
11987;BME280;6053;51.382;6.768;2023-01-26T10:58:48;102048.56;;;5.98;100.00
11987;BME280;6053;51.382;6.768;2023-01-26T11:01:17;102043.94;;;5.99;100.00
11987;BME280;6053;51.382;6.768;2023-01-26T11:04:01;102041.00;;;5.92;100.00
11987;BME280;6053;51.382;6.768;2023-01-26T11:06:33;102042.88;;;5.91;100.00
11987;BME280;6053;51.382;6.768;2023-01-26T11:09:16;102040.50;;;5.97;100.00
11987;BME280;6053;51.382;6.768;2023-01-26T11:12:01;102030.22;;;5.90;100.00
11987;BME280;6053;51.382;6.768;2023-01-26T11:14:31;102033.44;;;5.70;100.00
11987;BME280;6053;51.382;6.768;2023-01-26T11:17:16;102040.31;;;5.74;100.00
11987;BME280;6053;51.382;6.768;2023-01-26T11:19:59;102044.41;;;5.86;100.00
11987;BME280;6053;51.382;6.768;2023-01-26T11:22:36;102036.03;;;5.87;100.00
11987;BME280;6053;51.382;6.768;2023-01-26T11:25:16;102037.38;;;5.75;100.00
11987;BME280;6053;51.382;6.768;2023-01-26T11:27:57;102044.59;;;5.84;100.00
11987;BME280;6053;51.382;6.768;2023-01-26T11:30:49;102043.91;;;5.82;100.00
11987;BME280;6053;51.382;6.768;2023-01-26T11:33:28;102033.78;;;5.83;100.00
11987;BME280;6053;51.382;6.768;2023-01-26T11:36:02;102032.78;;;5.84;100.00
11987;BME280;6053;51.382;6.768;2023-01-26T11:38:39;102043.03;;;5.90;100.00
11987;BME280;6053;51.382;6.768;2023-01-26T11:41:24;102035.72;;;5.99;100.00
11987;BME280;6053;51.382;6.768;2023-01-26T11:44:32;102038.47;;;5.99;100.00
11987;BME280;6053;51.382;6.768;2023-01-26T11:47:33;102033.84;;;5.99;100.00
11987;BME280;6053;51.382;6.768;2023-01-26T11:50:18;102024.97;;;5.97;100.00
11987;BME280;6053;51.382;6.768;2023-01-26T11:53:02;102014.84;;;5.98;100.00
11987;BME280;6053;51.382;6.768;2023-01-26T11:55:51;102016.03;;;6.03;100.00
11987;BME280;6053;51.382;6.768;2023-01-26T11:58:29;102012.44;;;6.03;100.00
11987;BME280;6053;51.382;6.768;2023-01-26T12:01:00;102015.19;;;6.03;100.00
11987;BME280;6053;51.382;6.768;2023-01-26T12:03:34;102006.97;;;6.03;100.00
11987;BME280;6053;51.382;6.768;2023-01-26T12:06:15;102008.69;;;6.12;100.00
11987;BME280;6053;51.382;6.768;2023-01-26T12:08:49;102006.78;;;6.12;100.00
11987;BME280;6053;51.382;6.768;2023-01-26T12:11:22;102006.28;;;6.09;100.00
11987;BME280;6053;51.382;6.768;2023-01-26T12:14:01;102005.09;;;6.11;100.00
11987;BME280;6053;51.382;6.768;2023-01-26T12:16:37;102001.81;;;6.16;100.00
11987;BME280;6053;51.382;6.768;2023-01-26T12:19:25;101995.66;;;6.06;100.00
11987;BME280;6053;51.382;6.768;2023-01-26T12:22:04;101995.34;;;6.01;100.00
11987;BME280;6053;51.382;6.768;2023-01-26T12:24:38;101994.94;;;5.71;100.00
11987;BME280;6053;51.382;6.768;2023-01-26T12:27:37;101986.09;;;5.94;100.00
11987;BME280;6053;51.382;6.768;2023-01-26T12:30:21;101978.88;;;5.84;100.00
11987;BME280;6053;51.382;6.768;2023-01-26T12:32:52;101977.16;;;6.00;100.00
11987;BME280;6053;51.382;6.768;2023-01-26T12:35:28;101973.25;;;6.10;100.00
11987;BME280;6053;51.382;6.768;2023-01-26T12:38:04;101963.97;;;6.03;100.00
11987;BME280;6053;51.382;6.768;2023-01-26T12:40:56;101960.91;;;6.14;100.00
11987;BME280;6053;51.382;6.768;2023-01-26T12:43:40;101957.97;;;6.16;100.00
11987;BME280;6053;51.382;6.768;2023-01-26T12:46:12;101962.78;;;6.14;100.00
11987;BME280;6053;51.382;6.768;2023-01-26T12:48:43;101962.09;;;6.12;100.00
11987;BME280;6053;51.382;6.768;2023-01-26T12:51:19;101961.25;;;6.11;100.00
11987;BME280;6053;51.382;6.768;2023-01-26T12:53:55;101962.78;;;6.14;100.00
11987;BME280;6053;51.382;6.768;2023-01-26T12:56:29;101958.16;;;6.14;100.00
11987;BME280;6053;51.382;6.768;2023-01-26T12:59:05;101957.00;;;6.01;100.00
11987;BME280;6053;51.382;6.768;2023-01-26T13:01:39;101960.06;;;5.98;100.00
11987;BME280;6053;51.382;6.768;2023-01-26T13:04:09;101965.03;;;5.94;100.00
11987;BME280;6053;51.382;6.768;2023-01-26T13:06:39;101959.38;;;5.96;100.00
11987;BME280;6053;51.382;6.768;2023-01-26T13:09:23;101957.31;;;6.06;100.00
11987;BME280;6053;51.382;6.768;2023-01-26T13:11:53;101962.44;;;6.09;100.00
11987;BME280;6053;51.382;6.768;2023-01-26T13:14:31;101944.47;;;5.74;100.00
11987;BME280;6053;51.382;6.768;2023-01-26T13:20:22;101951.69;;;5.00;100.00
11987;BME280;6053;51.382;6.768;2023-01-26T13:22:51;101946.00;;;5.43;100.00
11987;BME280;6053;51.382;6.768;2023-01-26T13:25:29;101945.31;;;5.90;100.00
11987;BME280;6053;51.382;6.768;2023-01-26T13:28:02;101952.69;;;5.74;100.00
11987;BME280;6053;51.382;6.768;2023-01-26T13:30:45;101954.09;;;5.94;100.00
11987;BME280;6053;51.382;6.768;2023-01-26T13:33:21;101948.72;;;5.76;100.00
11987;BME280;6053;51.382;6.768;2023-01-26T13:35:52;101950.97;;;5.89;100.00
11987;BME280;6053;51.382;6.768;2023-01-26T13:38:28;101948.41;;;5.96;100.00
11987;BME280;6053;51.382;6.768;2023-01-26T13:41:01;101947.56;;;5.95;100.00